Time;durP1;ratioP1;P1;durP2;ratioP2;P2;SDS_P1;SDS_P2;PMS_P1;PMS_P2;Temp;Humidity;BMP_temperature;BMP_pressure;BME280_temperature;BME280_humidity;BME280_pressure;Samples;Min_cycle;Max_cycle;Signal;HPM_P1;HPM_P2
2024/01/27 00:02:16;;;;;;;28.35;4.35;;;;;;;4.40;72.78;102074.28;6274800;22;20099;-69
2024/01/27 00:04:43;;;;;;;31.75;4.20;;;;;;;4.28;73.60;102080.13;6274722;22;20445;-69
2024/01/27 00:07:09;;;;;;;32.35;4.88;;;;;;;4.36;72.83;102078.03;6275739;22;20023;-69
2024/01/27 00:09:36;;;;;;;27.30;4.50;;;;;;;4.28;73.64;102074.75;6275567;22;20020;-69
2024/01/27 00:12:04;;;;;;;31.50;4.82;;;;;;;4.37;72.82;102069.03;6274801;22;20024;-69
2024/01/27 00:14:30;;;;;;;37.35;4.88;;;;;;;4.34;72.63;102082.59;6275169;22;20027;-70
2024/01/27 00:16:57;;;;;;;28.90;4.43;;;;;;;4.40;72.17;102076.97;6275282;22;20035;-69
2024/01/27 00:19:23;;;;;;;35.92;4.38;;;;;;;4.36;71.96;102073.53;6274757;22;20046;-69
2024/01/27 00:21:50;;;;;;;32.17;4.25;;;;;;;4.36;71.94;102080.72;6275390;22;20042;-69
2024/01/27 00:24:16;;;;;;;40.80;4.63;;;;;;;4.33;71.84;102078.16;6275212;22;20039;-69
2024/01/27 00:26:44;;;;;;;29.42;4.55;;;;;;;4.30;71.81;102072.88;6274647;22;20039;-69
2024/01/27 00:29:10;;;;;;;30.13;4.53;;;;;;;4.30;71.95;102089.88;6275297;22;20023;-70
2024/01/27 00:31:37;;;;;;;35.00;3.83;;;;;;;4.28;71.81;102086.38;6276120;22;20027;-68
2024/01/27 00:34:04;;;;;;;26.88;4.18;;;;;;;4.28;71.48;102085.50;6276375;22;20035;-68
2024/01/27 00:36:31;;;;;;;33.03;5.07;;;;;;;4.23;71.05;102088.41;6277387;22;20038;-69
2024/01/27 00:38:58;;;;;;;37.60;4.68;;;;;;;4.22;71.28;102096.53;6277974;22;20029;-69
2024/01/27 00:41:24;;;;;;;31.88;4.70;;;;;;;4.21;71.26;102098.34;6276960;22;20016;-69
2024/01/27 00:43:51;;;;;;;33.90;4.25;;;;;;;4.28;70.12;102088.19;6276106;22;20069;-69
2024/01/27 00:46:17;;;;;;;34.83;3.97;;;;;;;4.18;71.13;102102.94;6276742;22;20450;-69
2024/01/27 00:48:44;;;;;;;29.70;3.97;;;;;;;4.27;70.28;102099.88;6277292;22;20028;-69
2024/01/27 00:51:11;;;;;;;32.20;4.15;;;;;;;4.28;69.47;102088.19;6278656;22;20016;-69
2024/01/27 00:53:39;;;;;;;35.78;4.53;;;;;;;4.15;70.48;102102.13;6277093;22;20039;-69
2024/01/27 00:56:06;;;;;;;29.00;4.93;;;;;;;4.17;70.72;102103.88;6277097;22;20073;-68
2024/01/27 00:58:33;;;;;;;33.13;5.15;;;;;;;4.11;70.74;102108.53;6276836;22;20024;-69
2024/01/27 01:01:01;;;;;;;28.70;4.25;;;;;;;4.22;69.85;102107.25;6277467;22;20077;-70
2024/01/27 01:03:30;;;;;;;28.05;4.25;;;;;;;4.22;68.94;102118.00;6278604;22;20098;-69
2024/01/27 01:05:56;;;;;;;32.20;4.72;;;;;;;4.17;70.34;102119.97;6250473;22;20085;-68
2024/01/27 01:08:23;;;;;;;41.85;4.97;;;;;;;4.10;70.53;102114.84;6276716;22;20065;-68
2024/01/27 01:10:50;;;;;;;33.33;4.13;;;;;;;4.14;70.68;102118.28;6276951;22;20020;-69
2024/01/27 01:13:16;;;;;;;31.63;4.28;;;;;;;4.13;69.79;102106.69;6277614;22;20027;-70
2024/01/27 01:15:44;;;;;;;37.05;5.15;;;;;;;4.05;70.44;102110.59;6276658;22;20118;-68
2024/01/27 01:18:10;;;;;;;30.55;4.45;;;;;;;4.03;70.55;102124.09;6278397;22;20089;-70
2024/01/27 01:20:37;;;;;;;36.63;5.35;;;;;;;4.01;70.49;102120.56;6279567;22;20024;-68
2024/01/27 01:23:03;;;;;;;25.27;4.22;;;;;;;4.02;70.73;102132.16;6277837;22;20393;-68
2024/01/27 01:25:31;;;;;;;39.08;5.03;;;;;;;3.97;70.90;102129.69;6277880;22;20027;-68
2024/01/27 01:27:57;;;;;;;39.67;4.93;;;;;;;4.07;70.41;102136.44;6278781;22;20027;-68
2024/01/27 01:30:24;;;;;;;31.75;3.67;;;;;;;3.94;71.23;102129.81;6277555;22;20481;-68
2024/01/27 01:32:51;;;;;;;23.70;3.50;;;;;;;3.97;71.37;102144.91;6277462;22;20117;-68
2024/01/27 01:35:18;;;;;;;33.92;4.32;;;;;;;3.91;71.44;102146.00;6250398;22;20376;-68
2024/01/27 01:37:46;;;;;;;29.92;4.82;;;;;;;3.94;71.53;102145.03;6277364;22;20082;-68
2024/01/27 01:40:12;;;;;;;27.33;4.15;;;;;;;4.03;70.53;102150.06;6277096;22;20024;-69
2024/01/27 01:42:39;;;;;;;26.92;3.85;;;;;;;4.09;70.43;102134.56;6278171;22;20473;-68
2024/01/27 01:45:06;;;;;;;39.20;5.47;;;;;;;4.07;70.72;102141.81;6278260;22;20073;-68
2024/01/27 01:47:33;;;;;;;34.78;4.60;;;;;;;4.06;71.36;102148.13;6276880;22;20024;-68
2024/01/27 01:50:01;;;;;;;28.05;4.35;;;;;;;4.09;70.90;102133.69;6277510;22;20062;-69
2024/01/27 01:52:28;;;;;;;29.42;4.10;;;;;;;3.97;72.20;102148.47;6277369;22;20020;-68
2024/01/27 01:54:54;;;;;;;34.33;4.82;;;;;;;3.96;72.84;102154.78;6276625;22;20102;-68
2024/01/27 01:57:21;;;;;;;34.03;4.80;;;;;;;4.03;71.74;102142.88;6276125;22;20410;-68
2024/01/27 01:59:48;;;;;;;26.02;4.38;;;;;;;3.98;72.34;102144.84;6275368;22;20020;-68
2024/01/27 02:02:16;;;;;;;36.05;4.50;;;;;;;4.00;72.22;102151.03;6276638;22;20054;-68
2024/01/27 02:04:47;;;;;;;28.48;3.90;;;;;;;4.05;71.77;102146.38;6277831;22;20020;-69
2024/01/27 02:07:15;;;;;;;43.47;4.65;;;;;;;4.06;71.64;102150.81;6276801;22;20046;-68
2024/01/27 02:09:42;;;;;;;31.40;4.25;;;;;;;4.04;72.34;102150.00;6276597;22;20028;-68
2024/01/27 02:12:08;;;;;;;38.28;5.57;;;;;;;4.08;72.07;102157.00;6276197;22;20019;-68
2024/01/27 02:14:35;;;;;;;37.50;3.97;;;;;;;4.08;71.77;102165.03;6275783;22;20505;-68
2024/01/27 02:17:02;;;;;;;27.08;4.03;;;;;;;4.02;72.60;102176.00;6275745;22;20027;-69
2024/01/27 02:19:28;;;;;;;32.78;4.10;;;;;;;4.12;72.11;102173.88;6276704;22;20451;-69
2024/01/27 02:21:55;;;;;;;27.80;4.22;;;;;;;4.15;71.46;102171.06;6275713;22;20516;-69
2024/01/27 02:24:21;;;;;;;33.08;4.72;;;;;;;4.09;72.90;102174.84;6274710;22;20045;-69
2024/01/27 02:26:48;;;;;;;30.77;4.85;;;;;;;4.08;72.95;102181.16;6275957;22;20073;-68
2024/01/27 02:29:15;;;;;;;27.40;3.88;;;;;;;4.12;72.31;102172.06;6275234;22;20026;-68
2024/01/27 02:31:41;;;;;;;30.88;4.22;;;;;;;4.10;72.52;102179.28;6277847;22;20023;-68
2024/01/27 02:34:09;;;;;;;22.67;3.70;;;;;;;4.13;72.50;102192.63;6248856;22;20039;-69
2024/01/27 02:36:35;;;;;;;29.17;3.83;;;;;;;4.10;73.27;102190.03;6275846;22;20038;-68
2024/01/27 02:39:02;;;;;;;31.67;4.85;;;;;;;4.00;73.79;102202.03;6274919;22;20024;-69
2024/01/27 02:41:29;;;;;;;29.17;4.72;;;;;;;4.13;72.74;102191.75;6275154;22;20020;-69
2024/01/27 02:43:55;;;;;;;34.08;4.05;;;;;;;4.18;72.31;102197.78;6274017;22;20035;-69
2024/01/27 02:46:22;;;;;;;34.05;4.38;;;;;;;4.14;72.31;102190.81;6276355;22;20012;-68
2024/01/27 02:48:49;;;;;;;30.45;4.45;;;;;;;4.08;72.89;102201.75;6276710;22;20473;-68
2024/01/27 02:51:20;;;;;;;31.48;4.20;;;;;;;4.14;72.32;102206.91;6277108;22;20468;-68
2024/01/27 02:53:49;;;;;;;37.00;4.95;;;;;;;4.10;72.86;102206.13;6251232;22;20454;-68
2024/01/27 02:56:16;;;;;;;32.42;4.78;;;;;;;4.06;72.99;102199.13;6274781;22;20025;-68
2024/01/27 02:58:44;;;;;;;28.92;4.18;;;;;;;4.18;72.34;102207.66;6276454;22;20050;-69
2024/01/27 03:01:10;;;;;;;34.38;4.35;;;;;;;4.19;72.58;102209.41;6277151;22;20023;-68
2024/01/27 03:03:37;;;;;;;31.27;4.53;;;;;;;4.12;72.13;102212.34;6276789;22;20050;-68
2024/01/27 03:06:04;;;;;;;30.98;4.10;;;;;;;4.04;73.12;102205.50;6274950;22;20035;-68
2024/01/27 03:08:31;;;;;;;36.55;3.90;;;;;;;4.14;72.35;102207.78;6273224;22;20110;-69
2024/01/27 03:10:57;;;;;;;32.47;4.40;;;;;;;4.00;73.24;102212.78;6275043;22;20093;-69
2024/01/27 03:13:24;;;;;;;40.00;4.68;;;;;;;3.98;73.53;102217.34;6277154;22;20394;-68
2024/01/27 03:15:52;;;;;;;29.15;3.85;;;;;;;3.99;73.07;102211.03;6250215;22;20015;-69
2024/01/27 03:18:19;;;;;;;39.10;4.43;;;;;;;3.93;73.42;102213.06;6276371;22;20023;-69
2024/01/27 03:20:45;;;;;;;35.22;4.80;;;;;;;3.87;73.67;102214.16;6277101;22;20118;-68
2024/01/27 03:23:12;;;;;;;31.10;3.95;;;;;;;3.84;73.82;102223.22;6278276;22;20038;-68
2024/01/27 03:25:39;;;;;;;42.22;4.93;;;;;;;3.83;74.11;102223.25;6276076;22;20019;-68
2024/01/27 03:28:05;;;;;;;33.75;4.75;;;;;;;3.68;75.29;102230.06;6275420;22;20016;-68
2024/01/27 03:30:32;;;;;;;31.95;4.93;;;;;;;3.53;76.47;102242.19;6275861;22;20023;-68
2024/01/27 03:32:59;;;;;;;33.53;4.50;;;;;;;3.74;74.30;102237.00;6276254;22;20470;-68
2024/01/27 03:35:25;;;;;;;27.23;4.97;;;;;;;3.63;75.18;102236.50;6275152;22;20019;-68
2024/01/27 03:37:52;;;;;;;51.53;5.93;;;;;;;3.61;75.66;102228.50;6276266;22;20073;-67
2024/01/27 03:40:27;;;;;;;35.22;3.90;;;;;;;3.58;75.59;102237.56;6276875;22;20454;-68
2024/01/27 03:42:55;;;;;;;38.17;4.30;;;;;;;3.43;76.40;102231.84;6274742;22;20024;-68
2024/01/27 03:45:23;;;;;;;37.35;4.43;;;;;;;3.26;77.50;102233.28;6277593;22;20065;-68
2024/01/27 03:47:50;;;;;;;41.47;4.88;;;;;;;3.40;76.42;102235.50;6276743;22;20023;-69
2024/01/27 03:50:17;;;;;;;34.55;5.13;;;;;;;3.40;76.42;102240.00;6249759;22;20020;-68
2024/01/27 03:52:44;;;;;;;32.47;4.60;;;;;;;3.29;77.01;102232.31;6277836;22;20062;-68
2024/01/27 03:55:11;;;;;;;36.78;6.25;;;;;;;3.38;76.79;102221.28;6275081;22;20435;-68
2024/01/27 03:57:37;;;;;;;29.63;3.97;;;;;;;3.33;76.97;102228.59;6276795;22;20093;-69
2024/01/27 04:00:04;;;;;;;36.65;4.85;;;;;;;3.33;77.12;102228.59;6277277;22;20032;-69
2024/01/27 04:02:31;;;;;;;40.50;7.03;;;;;;;3.23;77.75;102237.88;6276152;22;20020;-69
2024/01/27 04:04:58;;;;;;;34.28;4.95;;;;;;;3.29;76.99;102243.91;6277657;22;20028;-69
2024/01/27 04:07:24;;;;;;;31.50;4.78;;;;;;;3.25;77.40;102242.25;6277062;22;20031;-69
2024/01/27 04:09:51;;;;;;;34.10;4.55;;;;;;;3.30;76.88;102250.16;6276685;22;20016;-69
2024/01/27 04:12:18;;;;;;;32.05;4.50;;;;;;;3.27;77.23;102253.78;6277506;22;20024;-69
2024/01/27 04:14:44;;;;;;;28.13;3.88;;;;;;;3.21;77.64;102250.47;6276705;22;20446;-71
2024/01/27 04:17:12;;;;;;;23.85;4.10;;;;;;;3.15;78.17;102261.38;6277174;22;20070;-69
2024/01/27 04:19:38;;;;;;;38.08;4.82;;;;;;;3.17;78.13;102264.88;6276192;22;20085;-69
2024/01/27 04:22:08;;;;;;;35.00;4.55;;;;;;;3.24;77.83;102256.59;6278370;22;20024;-69
2024/01/27 04:24:34;;;;;;;38.33;4.85;;;;;;;3.23;77.67;102253.97;6250352;22;20401;-70
2024/01/27 04:27:02;;;;;;;31.58;5.10;;;;;;;3.18;78.30;102272.00;6250731;22;20031;-69
2024/01/27 04:29:29;;;;;;;45.17;5.03;;;;;;;3.23;77.98;102270.06;6277888;22;20027;-69
2024/01/27 04:31:55;;;;;;;33.10;4.82;;;;;;;3.20;78.21;102275.53;6277775;22;20028;-69
2024/01/27 04:34:22;;;;;;;37.47;4.32;;;;;;;3.19;78.23;102295.22;6269613;22;20374;-69
2024/01/27 04:36:49;;;;;;;40.80;4.30;;;;;;;3.12;78.67;102293.66;6244669;23;20214;-72
2024/01/27 04:39:15;;;;;;;29.52;4.63;;;;;;;3.19;78.09;102298.78;6240416;23;20028;-72
2024/01/27 04:41:43;;;;;;;27.88;4.40;;;;;;;3.17;78.47;102305.09;6242543;23;20071;-71
2024/01/27 04:44:10;;;;;;;34.33;4.57;;;;;;;3.17;78.60;102307.78;6242533;23;20024;-72
2024/01/27 04:46:37;;;;;;;41.38;4.47;;;;;;;3.24;78.13;102317.38;6242328;23;20020;-72
2024/01/27 04:49:04;;;;;;;36.92;5.32;;;;;;;3.19;78.58;102314.00;6241881;23;20024;-72
2024/01/27 04:51:31;;;;;;;27.58;4.60;;;;;;;3.23;78.45;102313.84;6216196;23;20019;-72
2024/01/27 04:53:57;;;;;;;26.83;4.82;;;;;;;3.21;78.50;102321.06;6241893;23;20104;-72
2024/01/27 04:56:24;;;;;;;37.70;5.25;;;;;;;3.23;78.22;102329.03;6241702;23;20034;-71
2024/01/27 04:58:50;;;;;;;38.75;4.50;;;;;;;3.16;79.09;102330.16;6241571;23;20024;-72
2024/01/27 05:01:17;;;;;;;37.67;4.22;;;;;;;3.31;78.38;102340.41;6241946;23;20031;-71
2024/01/27 05:03:44;;;;;;;28.50;4.13;;;;;;;3.35;78.55;102344.72;6216674;23;20059;-71
2024/01/27 05:06:11;;;;;;;34.17;5.13;;;;;;;3.43;77.86;102342.69;6241604;23;20028;-72
2024/01/27 05:08:38;;;;;;;35.25;5.45;;;;;;;3.39;77.79;102354.44;6242335;23;20020;-71
2024/01/27 05:11:06;;;;;;;31.75;4.38;;;;;;;3.55;77.38;102353.00;6215894;23;20066;-71
2024/01/27 05:13:33;;;;;;;38.05;4.90;;;;;;;3.45;78.17;102364.97;6242525;23;20024;-71
2024/01/27 05:15:59;;;;;;;34.53;5.00;;;;;;;3.63;77.26;102370.66;6241714;23;20020;-71
2024/01/27 05:18:26;;;;;;;35.05;4.82;;;;;;;3.56;77.85;102360.16;6241777;23;20030;-71
2024/01/27 05:20:54;;;;;;;46.60;5.70;;;;;;;3.58;77.94;102370.84;6242969;23;20031;-71
2024/01/27 05:23:20;;;;;;;42.08;5.60;;;;;;;3.71;77.00;102366.81;6242762;23;20107;-71
2024/01/27 05:25:47;;;;;;;40.58;6.15;;;;;;;3.63;77.58;102374.22;6243191;23;20016;-71
2024/01/27 05:28:13;;;;;;;33.42;4.45;;;;;;;3.57;77.80;102375.31;6243842;23;20083;-71
2024/01/27 05:30:40;;;;;;;43.85;5.78;;;;;;;3.68;77.34;102379.47;6243803;23;20382;-71
2024/01/27 05:33:06;;;;;;;25.02;3.78;;;;;;;3.76;77.16;102382.78;6243215;23;20082;-71
2024/01/27 05:35:33;;;;;;;32.83;4.40;;;;;;;3.75;77.17;102386.38;6243152;22;20102;-71
2024/01/27 05:38:00;;;;;;;44.08;5.25;;;;;;;3.82;76.63;102380.72;6243215;23;20476;-71
2024/01/27 05:40:26;;;;;;;37.20;4.90;;;;;;;3.76;76.99;102377.41;6242847;23;20070;-71
2024/01/27 05:42:54;;;;;;;38.45;4.65;;;;;;;3.77;77.04;102380.03;6243044;23;20050;-71
2024/01/27 05:45:22;;;;;;;33.78;4.50;;;;;;;3.69;77.90;102386.56;6243017;23;20066;-71
2024/01/27 05:47:50;;;;;;;35.03;4.10;;;;;;;3.71;77.64;102382.03;6243921;23;20078;-71
2024/01/27 05:50:18;;;;;;;41.90;5.03;;;;;;;3.71;77.59;102376.66;6243101;23;20020;-71
2024/01/27 05:52:44;;;;;;;28.08;3.92;;;;;;;3.67;77.73;102372.34;6243153;23;20019;-71
2024/01/27 05:55:12;;;;;;;36.70;4.85;;;;;;;3.70;77.54;102374.91;6243866;23;20016;-71
2024/01/27 05:57:39;;;;;;;34.60;4.35;;;;;;;3.68;77.87;102379.47;6242919;23;20023;-71
2024/01/27 06:00:06;;;;;;;31.30;4.18;;;;;;;3.68;77.48;102382.13;6243038;23;20024;-71
2024/01/27 06:02:33;;;;;;;41.38;4.50;;;;;;;3.66;77.99;102392.06;6242677;23;20031;-71
2024/01/27 06:04:59;;;;;;;33.00;5.20;;;;;;;3.67;78.27;102393.81;6242731;23;20028;-71
2024/01/27 06:07:26;;;;;;;39.30;4.95;;;;;;;3.75;77.59;102411.41;6242913;23;20447;-71
2024/01/27 06:09:53;;;;;;;36.75;4.50;;;;;;;3.78;77.72;102403.25;6242730;23;20419;-71
2024/01/27 06:12:20;;;;;;;24.30;4.45;;;;;;;3.85;77.42;102398.56;6242585;23;20074;-71
2024/01/27 06:14:46;;;;;;;26.58;4.80;;;;;;;3.87;77.13;102402.06;6216488;23;20024;-70
2024/01/27 06:17:14;;;;;;;38.65;4.82;;;;;;;3.87;77.16;102407.44;6246051;23;20024;-68
2024/01/27 06:19:41;;;;;;;43.03;4.30;;;;;;;3.93;76.74;102411.69;6248771;23;20042;-70
2024/01/27 06:22:08;;;;;;;37.95;4.47;;;;;;;3.90;76.90;102411.81;6247608;23;20307;-68
2024/01/27 06:24:41;;;;;;;34.08;4.55;;;;;;;4.01;76.47;102407.84;6247624;23;20032;-69
2024/01/27 06:27:07;;;;;;;28.42;3.97;;;;;;;3.99;77.10;102423.13;6248567;23;20024;-68
2024/01/27 06:29:34;;;;;;;26.60;4.32;;;;;;;3.98;76.92;102420.50;6248054;23;20099;-69
2024/01/27 06:32:00;;;;;;;35.67;4.93;;;;;;;4.02;76.83;102422.13;6221147;23;20024;-68
2024/01/27 06:34:27;;;;;;;33.13;4.53;;;;;;;4.02;77.12;102423.00;6246884;22;20031;-68
2024/01/27 06:36:54;;;;;;;38.67;4.78;;;;;;;4.04;76.94;102423.00;6247943;23;20036;-68
2024/01/27 06:39:21;;;;;;;33.13;4.40;;;;;;;3.87;78.42;102420.84;6247384;23;20024;-68
2024/01/27 06:41:48;;;;;;;37.35;5.20;;;;;;;3.94;77.76;102429.59;6246910;23;20036;-68
2024/01/27 06:44:14;;;;;;;24.40;4.22;;;;;;;3.95;77.84;102434.91;6246721;23;20131;-69
2024/01/27 06:46:41;;;;;;;39.28;4.97;;;;;;;3.90;77.43;102430.59;6247647;23;20039;-68
2024/01/27 06:49:08;;;;;;;44.80;5.63;;;;;;;3.81;78.47;102447.88;6246418;23;20095;-69
2024/01/27 06:51:34;;;;;;;41.83;5.18;;;;;;;3.89;78.03;102456.56;6246765;23;20029;-69
2024/01/27 06:54:01;;;;;;;43.92;5.28;;;;;;;3.81;78.51;102462.19;6246615;23;20055;-68
2024/01/27 06:56:27;;;;;;;39.45;4.20;;;;;;;3.95;77.72;102458.19;6246699;23;20022;-68
2024/01/27 06:58:54;;;;;;;36.80;5.25;;;;;;;3.99;77.44;102474.13;6246610;23;20032;-69
2024/01/27 07:01:21;;;;;;;31.77;4.85;;;;;;;3.95;77.70;102475.19;6220328;23;20020;-69
2024/01/27 07:03:47;;;;;;;55.33;6.18;;;;;;;4.02;77.26;102474.03;6246832;23;20394;-69
2024/01/27 07:06:14;;;;;;;35.15;4.85;;;;;;;4.02;77.27;102478.53;6248035;23;20095;-69
2024/01/27 07:08:41;;;;;;;25.90;3.22;;;;;;;3.88;78.55;102478.97;6221032;23;20020;-69
2024/01/27 07:11:07;;;;;;;34.70;4.30;;;;;;;3.98;77.78;102479.56;6220887;23;20027;-69
2024/01/27 07:13:34;;;;;;;40.28;4.45;;;;;;;4.10;77.21;102482.72;6244407;23;20517;-71
2024/01/27 07:16:01;;;;;;;40.65;4.15;;;;;;;4.07;77.29;102488.19;6241090;23;20036;-72
2024/01/27 07:18:29;;;;;;;31.05;5.18;;;;;;;4.11;77.77;102497.91;6242903;23;20522;-70
2024/01/27 07:20:55;;;;;;;36.80;4.45;;;;;;;4.09;77.50;102505.13;6242819;23;20521;-70
2024/01/27 07:23:22;;;;;;;31.73;4.53;;;;;;;4.12;77.10;102504.19;6243531;23;20027;-69
2024/01/27 07:25:49;;;;;;;35.00;4.65;;;;;;;4.07;77.55;102507.00;6243623;23;20017;-70
2024/01/27 07:28:18;;;;;;;26.55;4.43;;;;;;;4.10;77.00;102514.94;6243260;23;20031;-70
2024/01/27 07:30:45;;;;;;;38.17;5.20;;;;;;;4.08;77.84;102519.47;6242953;23;20028;-71
2024/01/27 07:33:12;;;;;;;34.35;4.55;;;;;;;4.15;77.31;102515.69;6243844;23;20112;-71
2024/01/27 07:35:38;;;;;;;33.42;4.00;;;;;;;4.22;76.89;102528.91;6243055;22;20031;-69
2024/01/27 07:38:05;;;;;;;28.35;5.05;;;;;;;4.24;76.73;102532.44;6242804;23;20516;-69
2024/01/27 07:40:32;;;;;;;30.52;4.32;;;;;;;4.19;76.86;102537.94;6242808;23;20530;-69
2024/01/27 07:42:58;;;;;;;48.22;5.68;;;;;;;4.23;77.04;102534.25;6242863;23;20028;-69
2024/01/27 07:45:25;;;;;;;34.08;4.85;;;;;;;4.36;76.45;102537.38;6243384;23;20020;-69
2024/01/27 07:47:51;;;;;;;35.05;4.57;;;;;;;4.34;76.28;102541.94;6243109;23;20020;-69
2024/01/27 07:50:18;;;;;;;30.95;3.95;;;;;;;4.29;76.85;102549.25;6242644;23;20031;-69
2024/01/27 07:52:45;;;;;;;39.05;6.10;;;;;;;4.33;76.13;102535.69;6242058;23;20020;-69
2024/01/27 07:55:11;;;;;;;34.15;4.70;;;;;;;4.34;76.00;102540.13;6243470;23;20020;-68
2024/01/27 07:57:38;;;;;;;25.00;4.15;;;;;;;4.42;75.80;102539.88;6242824;23;20024;-71
2024/01/27 08:00:06;;;;;;;35.53;5.07;;;;;;;4.32;76.38;102551.88;6242602;23;20032;-68
2024/01/27 08:02:33;;;;;;;42.53;5.38;;;;;;;4.42;76.29;102551.50;6242651;23;20024;-69
2024/01/27 08:04:59;;;;;;;33.60;5.03;;;;;;;4.39;76.73;102556.06;6242995;23;20336;-68
2024/01/27 08:07:26;;;;;;;41.65;5.03;;;;;;;4.44;76.15;102559.50;6242144;23;20358;-69
2024/01/27 08:09:53;;;;;;;33.67;5.20;;;;;;;4.38;76.27;102562.38;6242345;23;20020;-69
2024/01/27 08:12:20;;;;;;;32.10;4.90;;;;;;;4.53;75.87;102558.31;6242808;23;20028;-69
2024/01/27 08:14:46;;;;;;;29.65;4.05;;;;;;;4.55;75.88;102562.72;6242810;23;20446;-69
2024/01/27 08:17:13;;;;;;;37.50;4.47;;;;;;;4.58;75.64;102575.16;6243665;23;20466;-69
2024/01/27 08:19:40;;;;;;;31.08;5.15;;;;;;;4.66;75.01;102583.84;6242839;23;20055;-69
2024/01/27 08:22:09;;;;;;;26.85;4.82;;;;;;;4.52;75.81;102578.06;6242597;23;20025;-69
2024/01/27 08:24:35;;;;;;;31.70;4.72;;;;;;;4.64;75.11;102578.53;6242687;23;20418;-69
2024/01/27 08:27:02;;;;;;;31.58;4.15;;;;;;;4.67;74.89;102581.09;6216458;23;20051;-69
2024/01/27 08:29:30;;;;;;;45.22;7.35;;;;;;;4.69;74.92;102583.75;6242937;23;20016;-69
2024/01/27 08:31:56;;;;;;;28.58;4.97;;;;;;;4.70;74.67;102580.16;6242761;23;20031;-69
2024/01/27 08:34:23;;;;;;;36.15;4.95;;;;;;;4.71;74.64;102592.66;6250467;22;20024;-69
2024/01/27 08:36:50;;;;;;;28.50;5.35;;;;;;;4.67;75.46;102594.53;6273100;22;20488;-69
2024/01/27 08:39:17;;;;;;;39.13;4.53;;;;;;;4.79;74.02;102605.84;6273457;22;20370;-69
2024/01/27 08:41:45;;;;;;;39.35;4.15;;;;;;;4.82;73.96;102600.34;6273251;22;20020;-69
2024/01/27 08:44:12;;;;;;;30.52;4.70;;;;;;;4.80;74.28;102615.66;6273187;22;20023;-69
2024/01/27 08:46:38;;;;;;;46.55;5.57;;;;;;;4.82;74.52;102613.78;6273378;22;20016;-69
2024/01/27 08:49:05;;;;;;;32.17;4.53;;;;;;;4.87;74.13;102617.22;6273076;22;20157;-69
2024/01/27 08:51:32;;;;;;;47.97;6.45;;;;;;;4.89;74.11;102621.59;6272916;22;20019;-69
2024/01/27 08:53:59;;;;;;;52.65;7.03;;;;;;;4.92;74.28;102618.81;6260629;22;20023;-69
2024/01/27 08:56:26;;;;;;;35.17;4.63;;;;;;;4.95;74.20;102623.22;6274638;22;20098;-69
2024/01/27 08:58:52;;;;;;;30.45;4.85;;;;;;;5.03;73.42;102628.34;6274920;22;20019;-69
2024/01/27 09:01:20;;;;;;;40.25;6.00;;;;;;;5.04;73.69;102630.97;6275370;22;20028;-71
2024/01/27 09:03:47;;;;;;;35.05;4.70;;;;;;;5.01;74.22;102631.09;6247515;22;20103;-69
2024/01/27 09:06:16;;;;;;;39.58;5.22;;;;;;;5.15;73.02;102634.19;6276064;22;20018;-69
2024/01/27 09:08:43;;;;;;;38.08;5.00;;;;;;;5.10;73.64;102636.16;6249689;22;20354;-69
2024/01/27 09:11:09;;;;;;;41.90;5.60;;;;;;;5.19;72.94;102641.19;6248845;22;20024;-69
2024/01/27 09:13:36;;;;;;;30.17;5.60;;;;;;;5.28;72.21;102637.31;6274931;22;20093;-69
2024/01/27 09:16:03;;;;;;;37.72;6.20;;;;;;;5.29;72.62;102642.63;6274547;22;20362;-69
2024/01/27 09:18:29;;;;;;;37.55;5.13;;;;;;;5.28;72.62;102646.25;6274574;22;20077;-69
2024/01/27 09:20:57;;;;;;;35.65;5.28;;;;;;;5.28;72.61;102634.63;6274627;22;20019;-69
2024/01/27 09:23:23;;;;;;;30.73;4.90;;;;;;;5.28;73.18;102637.31;6275050;22;20019;-69
2024/01/27 09:25:51;;;;;;;35.00;5.25;;;;;;;5.36;72.47;102637.03;6274235;22;20442;-69
2024/01/27 09:28:17;;;;;;;38.28;6.47;;;;;;;5.36;71.86;102642.44;6274947;22;20446;-69
2024/01/27 09:30:44;;;;;;;36.90;4.28;;;;;;;5.34;72.37;102645.19;6274394;22;20074;-71
2024/01/27 09:33:11;;;;;;;28.80;5.10;;;;;;;5.36;72.22;102653.19;6274904;22;20039;-71
2024/01/27 09:35:38;;;;;;;37.97;6.03;;;;;;;5.36;72.44;102655.88;6251473;22;20024;-71
2024/01/27 09:38:09;;;;;;;38.10;4.97;;;;;;;5.38;72.74;102651.31;6244497;23;20367;-70
2024/01/27 09:40:35;;;;;;;33.67;4.20;;;;;;;5.37;72.91;102653.13;6243470;23;20099;-71
2024/01/27 09:43:02;;;;;;;31.60;4.57;;;;;;;5.48;71.65;102650.06;6244352;23;20028;-71
2024/01/27 09:45:29;;;;;;;36.90;5.18;;;;;;;5.47;71.64;102657.25;6244500;23;20016;-70
2024/01/27 09:48:00;;;;;;;32.50;3.80;;;;;;;5.47;71.81;102657.25;6244837;23;20032;-70
2024/01/27 09:50:28;;;;;;;35.17;4.93;;;;;;;5.48;72.04;102663.50;6244470;23;20400;-70
2024/01/27 09:52:54;;;;;;;33.80;5.53;;;;;;;5.52;71.77;102649.91;6244214;23;20028;-70
2024/01/27 09:55:21;;;;;;;33.28;4.65;;;;;;;5.55;71.58;102660.56;6243952;23;20028;-70
2024/01/27 09:57:48;;;;;;;33.42;4.85;;;;;;;5.67;71.61;102659.22;6243779;23;20016;-69
2024/01/27 10:00:16;;;;;;;34.33;5.63;;;;;;;5.77;70.09;102663.31;6244663;23;20024;-70
2024/01/27 10:02:46;;;;;;;33.38;5.55;;;;;;;5.80;70.29;102668.63;6244116;23;20023;-70
2024/01/27 10:05:13;;;;;;;34.08;5.45;;;;;;;5.76;70.54;102675.03;6244402;23;20442;-69
2024/01/27 10:07:39;;;;;;;25.67;4.78;;;;;;;5.68;70.55;102671.75;6243850;23;20070;-69
2024/01/27 10:10:07;;;;;;;29.55;5.35;;;;;;;5.58;71.52;102675.69;6243429;23;20020;-70
2024/01/27 10:12:41;;;;;;;36.83;4.90;;;;;;;5.61;71.52;102691.75;6241109;23;20446;-70
2024/01/27 10:15:19;;;;;;;49.53;6.30;;;;;;;5.59;71.31;102685.53;6212835;23;20074;-70
2024/01/27 10:56:27;;;;;;;41.40;6.43;;;;;;;6.17;70.21;102691.47;6258286;22;20082;-70
2024/01/27 10:58:54;;;;;;;38.70;6.20;;;;;;;6.11;70.23;102686.31;6275641;22;20027;-70
2024/01/27 11:57:34;;;;;;;36.60;5.28;;;;;;;6.02;70.18;102732.47;6208462;23;20026;-71
2024/01/27 12:00:05;;;;;;;26.90;4.63;;;;;;;6.01;69.80;102728.00;6210058;23;20032;-70
2024/01/27 12:02:32;;;;;;;33.83;4.85;;;;;;;5.96;70.01;102725.47;6210278;23;20021;-72
2024/01/27 12:04:59;;;;;;;36.00;4.85;;;;;;;6.09;69.39;102731.28;6210742;23;20075;-71
2024/01/27 12:07:26;;;;;;;29.98;4.68;;;;;;;6.11;68.93;102729.41;6211383;23;20036;-72
2024/01/27 12:09:53;;;;;;;33.72;4.70;;;;;;;6.04;68.28;102738.66;6209339;23;20116;-71
2024/01/27 12:12:20;;;;;;;28.10;4.75;;;;;;;6.04;68.51;102741.34;6210966;23;20025;-73
2024/01/27 12:14:48;;;;;;;30.00;5.03;;;;;;;6.11;68.48;102751.84;6183921;23;20012;-71
2024/01/27 12:17:15;;;;;;;25.52;5.25;;;;;;;6.10;68.29;102763.56;6210987;23;20096;-71
2024/01/27 12:19:52;;;;;;;23.95;3.80;;;;;;;6.32;67.20;102766.34;6214290;23;20024;-71
2024/01/27 12:22:27;;;;;;;23.10;3.92;;;;;;;6.43;66.97;102777.56;6209384;23;20035;-71
2024/01/27 12:24:55;;;;;;;22.40;3.72;;;;;;;6.61;66.83;102783.22;6209082;23;20059;-74
2024/01/27 12:27:23;;;;;;;33.03;4.60;;;;;;;6.96;64.75;102780.00;6210102;23;20009;-71
2024/01/27 12:29:50;;;;;;;33.95;5.82;;;;;;;6.88;64.21;102776.75;6211742;23;20403;-72
2024/01/27 12:32:17;;;;;;;26.13;3.92;;;;;;;6.93;64.65;102781.97;6213004;23;20078;-71
2024/01/27 12:34:45;;;;;;;27.63;4.40;;;;;;;6.99;64.63;102790.66;6187788;23;20020;-71
2024/01/27 12:37:15;;;;;;;27.17;4.82;;;;;;;7.12;64.12;102776.69;6213052;23;20024;-71
2024/01/27 12:39:44;;;;;;;33.83;4.88;;;;;;;7.21;64.52;102779.03;6213112;23;20462;-72
2024/01/27 12:42:11;;;;;;;30.42;5.28;;;;;;;7.95;61.88;102776.78;6212582;23;20447;-71
2024/01/27 12:44:38;;;;;;;25.98;4.72;;;;;;;8.35;60.45;102768.63;6210326;23;20023;-72
2024/01/27 12:47:05;;;;;;;28.48;6.10;;;;;;;8.46;59.62;102773.53;6185510;23;20032;-71
2024/01/27 12:49:32;;;;;;;31.40;5.35;;;;;;;8.52;59.72;102781.38;6210099;23;20017;-71
2024/01/27 12:51:59;;;;;;;27.80;4.88;;;;;;;8.40;59.98;102771.13;6213079;23;20032;-72
2024/01/27 12:54:26;;;;;;;35.42;5.63;;;;;;;8.28;60.69;102768.97;6241860;23;20079;-71
2024/01/27 12:56:52;;;;;;;21.50;5.03;;;;;;;7.81;61.87;102771.97;6241305;23;20091;-72
2024/01/27 12:59:20;;;;;;;31.73;5.75;;;;;;;7.62;63.03;102781.81;6242220;23;20031;-70